sensor_id;sensor_type;location;lat;lon;timestamp;P1;durP1;ratioP1;P2;durP2;ratioP2
47529;SDS011;33272;51.922;7.730;2024-01-07T00:01:08;18.77;;;15.27;;
47529;SDS011;33272;51.922;7.730;2024-01-07T00:03:37;18.03;;;15.60;;
47529;SDS011;33272;51.922;7.730;2024-01-07T00:06:06;16.27;;;14.33;;
47529;SDS011;33272;51.922;7.730;2024-01-07T00:08:33;16.00;;;13.63;;
47529;SDS011;33272;51.922;7.730;2024-01-07T00:11:01;16.53;;;13.33;;
47529;SDS011;33272;51.922;7.730;2024-01-07T00:13:27;16.87;;;13.90;;
47529;SDS011;33272;51.922;7.730;2024-01-07T00:15:54;15.23;;;13.13;;
47529;SDS011;33272;51.922;7.730;2024-01-07T00:18:21;15.23;;;12.83;;
47529;SDS011;33272;51.922;7.730;2024-01-07T00:20:50;15.03;;;12.77;;
47529;SDS011;33272;51.922;7.730;2024-01-07T00:23:17;16.40;;;13.10;;
47529;SDS011;33272;51.922;7.730;2024-01-07T00:25:43;14.10;;;12.13;;
47529;SDS011;33272;51.922;7.730;2024-01-07T00:28:10;14.70;;;12.03;;
47529;SDS011;33272;51.922;7.730;2024-01-07T00:30:36;12.80;;;11.40;;
47529;SDS011;33272;51.922;7.730;2024-01-07T00:33:03;13.70;;;11.77;;
47529;SDS011;33272;51.922;7.730;2024-01-07T00:35:33;13.83;;;11.77;;
47529;SDS011;33272;51.922;7.730;2024-01-07T00:38:01;14.33;;;12.33;;
47529;SDS011;33272;51.922;7.730;2024-01-07T00:40:27;15.47;;;11.87;;
47529;SDS011;33272;51.922;7.730;2024-01-07T00:42:54;14.13;;;11.90;;
47529;SDS011;33272;51.922;7.730;2024-01-07T00:45:20;13.63;;;11.33;;
47529;SDS011;33272;51.922;7.730;2024-01-07T00:47:47;13.37;;;12.00;;
47529;SDS011;33272;51.922;7.730;2024-01-07T00:50:14;13.70;;;11.90;;
47529;SDS011;33272;51.922;7.730;2024-01-07T00:52:41;12.67;;;10.77;;
47529;SDS011;33272;51.922;7.730;2024-01-07T00:55:09;12.60;;;10.70;;
47529;SDS011;33272;51.922;7.730;2024-01-07T00:57:36;14.77;;;11.20;;
47529;SDS011;33272;51.922;7.730;2024-01-07T01:00:04;11.70;;;10.00;;
47529;SDS011;33272;51.922;7.730;2024-01-07T01:02:32;12.87;;;10.70;;
47529;SDS011;33272;51.922;7.730;2024-01-07T01:04:58;10.97;;;9.37;;
47529;SDS011;33272;51.922;7.730;2024-01-07T01:07:25;10.93;;;9.23;;
47529;SDS011;33272;51.922;7.730;2024-01-07T01:09:51;10.30;;;9.20;;
47529;SDS011;33272;51.922;7.730;2024-01-07T01:12:19;10.43;;;8.63;;
47529;SDS011;33272;51.922;7.730;2024-01-07T01:14:46;9.67;;;8.57;;
47529;SDS011;33272;51.922;7.730;2024-01-07T01:17:12;10.07;;;8.67;;
47529;SDS011;33272;51.922;7.730;2024-01-07T01:19:39;10.23;;;9.23;;
47529;SDS011;33272;51.922;7.730;2024-01-07T01:22:06;11.47;;;9.10;;
47529;SDS011;33272;51.922;7.730;2024-01-07T01:24:33;12.30;;;10.17;;
47529;SDS011;33272;51.922;7.730;2024-01-07T01:26:59;11.40;;;9.83;;
47529;SDS011;33272;51.922;7.730;2024-01-07T01:29:27;11.33;;;10.13;;
47529;SDS011;33272;51.922;7.730;2024-01-07T01:31:54;10.67;;;9.43;;
47529;SDS011;33272;51.922;7.730;2024-01-07T01:34:21;10.37;;;9.17;;
47529;SDS011;33272;51.922;7.730;2024-01-07T01:36:47;9.80;;;8.80;;
47529;SDS011;33272;51.922;7.730;2024-01-07T01:39:14;12.10;;;9.13;;
47529;SDS011;33272;51.922;7.730;2024-01-07T01:41:40;10.80;;;9.13;;
47529;SDS011;33272;51.922;7.730;2024-01-07T01:44:07;10.83;;;8.87;;
47529;SDS011;33272;51.922;7.730;2024-01-07T01:46:35;10.20;;;9.17;;
47529;SDS011;33272;51.922;7.730;2024-01-07T01:49:02;10.13;;;9.03;;
47529;SDS011;33272;51.922;7.730;2024-01-07T01:51:29;10.47;;;9.03;;
47529;SDS011;33272;51.922;7.730;2024-01-07T01:53:56;11.13;;;9.63;;
47529;SDS011;33272;51.922;7.730;2024-01-07T01:56:25;11.60;;;9.77;;
47529;SDS011;33272;51.922;7.730;2024-01-07T01:58:53;10.77;;;9.30;;
47529;SDS011;33272;51.922;7.730;2024-01-07T02:01:20;12.50;;;9.83;;
47529;SDS011;33272;51.922;7.730;2024-01-07T02:03:49;11.10;;;9.73;;
47529;SDS011;33272;51.922;7.730;2024-01-07T02:06:17;11.80;;;9.53;;
47529;SDS011;33272;51.922;7.730;2024-01-07T02:08:44;12.57;;;9.77;;
47529;SDS011;33272;51.922;7.730;2024-01-07T02:11:15;10.97;;;9.87;;
47529;SDS011;33272;51.922;7.730;2024-01-07T02:13:43;11.83;;;10.60;;
47529;SDS011;33272;51.922;7.730;2024-01-07T02:16:09;12.73;;;10.53;;
47529;SDS011;33272;51.922;7.730;2024-01-07T02:18:36;12.43;;;9.93;;
47529;SDS011;33272;51.922;7.730;2024-01-07T02:21:05;13.90;;;10.50;;
47529;SDS011;33272;51.922;7.730;2024-01-07T02:23:32;12.70;;;10.87;;
47529;SDS011;33272;51.922;7.730;2024-01-07T02:26:00;13.77;;;10.70;;
47529;SDS011;33272;51.922;7.730;2024-01-07T02:28:27;15.53;;;11.73;;
47529;SDS011;33272;51.922;7.730;2024-01-07T02:30:54;12.07;;;10.40;;
47529;SDS011;33272;51.922;7.730;2024-01-07T02:33:21;13.80;;;11.20;;
47529;SDS011;33272;51.922;7.730;2024-01-07T02:35:48;12.73;;;9.97;;
47529;SDS011;33272;51.922;7.730;2024-01-07T02:38:14;12.33;;;9.43;;
47529;SDS011;33272;51.922;7.730;2024-01-07T02:40:41;13.80;;;10.60;;
47529;SDS011;33272;51.922;7.730;2024-01-07T02:43:09;13.37;;;10.77;;
47529;SDS011;33272;51.922;7.730;2024-01-07T02:45:36;11.60;;;9.73;;
47529;SDS011;33272;51.922;7.730;2024-01-07T02:48:03;12.37;;;10.50;;
47529;SDS011;33272;51.922;7.730;2024-01-07T02:50:30;12.13;;;10.20;;
47529;SDS011;33272;51.922;7.730;2024-01-07T02:52:57;11.27;;;9.73;;
47529;SDS011;33272;51.922;7.730;2024-01-07T02:55:23;13.57;;;10.63;;
47529;SDS011;33272;51.922;7.730;2024-01-07T02:57:50;11.03;;;9.93;;
47529;SDS011;33272;51.922;7.730;2024-01-07T03:00:18;16.10;;;11.10;;
47529;SDS011;33272;51.922;7.730;2024-01-07T03:02:45;14.47;;;11.40;;
47529;SDS011;33272;51.922;7.730;2024-01-07T03:05:11;11.17;;;9.93;;
47529;SDS011;33272;51.922;7.730;2024-01-07T03:07:38;11.57;;;10.27;;
47529;SDS011;33272;51.922;7.730;2024-01-07T03:10:05;11.90;;;10.27;;
47529;SDS011;33272;51.922;7.730;2024-01-07T03:12:32;11.73;;;10.07;;
47529;SDS011;33272;51.922;7.730;2024-01-07T03:14:59;11.03;;;9.70;;
47529;SDS011;33272;51.922;7.730;2024-01-07T03:17:27;12.57;;;9.70;;
47529;SDS011;33272;51.922;7.730;2024-01-07T03:19:53;11.27;;;10.07;;
47529;SDS011;33272;51.922;7.730;2024-01-07T03:22:20;12.87;;;10.33;;
47529;SDS011;33272;51.922;7.730;2024-01-07T03:24:46;10.97;;;9.70;;
47529;SDS011;33272;51.922;7.730;2024-01-07T03:27:13;12.47;;;10.50;;
47529;SDS011;33272;51.922;7.730;2024-01-07T03:29:39;12.33;;;10.00;;
47529;SDS011;33272;51.922;7.730;2024-01-07T03:32:06;11.17;;;9.97;;
47529;SDS011;33272;51.922;7.730;2024-01-07T03:34:34;12.07;;;10.40;;
47529;SDS011;33272;51.922;7.730;2024-01-07T03:37:01;11.57;;;9.97;;
47529;SDS011;33272;51.922;7.730;2024-01-07T03:42:49;11.33;;;10.00;;
47529;SDS011;33272;51.922;7.730;2024-01-07T03:45:15;12.30;;;10.70;;
47529;SDS011;33272;51.922;7.730;2024-01-07T03:47:42;12.93;;;10.93;;
47529;SDS011;33272;51.922;7.730;2024-01-07T03:50:10;13.20;;;10.70;;
47529;SDS011;33272;51.922;7.730;2024-01-07T03:52:36;12.50;;;10.13;;
47529;SDS011;33272;51.922;7.730;2024-01-07T03:55:03;12.93;;;10.17;;
47529;SDS011;33272;51.922;7.730;2024-01-07T03:57:31;14.03;;;11.00;;
47529;SDS011;33272;51.922;7.730;2024-01-07T03:59:58;13.20;;;10.50;;
47529;SDS011;33272;51.922;7.730;2024-01-07T04:02:25;13.13;;;10.50;;
47529;SDS011;33272;51.922;7.730;2024-01-07T04:04:51;12.93;;;11.60;;
47529;SDS011;33272;51.922;7.730;2024-01-07T04:07:19;14.30;;;11.97;;
47529;SDS011;33272;51.922;7.730;2024-01-07T04:09:46;14.40;;;11.40;;
47529;SDS011;33272;51.922;7.730;2024-01-07T04:12:12;14.40;;;11.67;;
47529;SDS011;33272;51.922;7.730;2024-01-07T04:14:39;13.33;;;11.80;;
47529;SDS011;33272;51.922;7.730;2024-01-07T04:17:05;13.83;;;11.50;;
47529;SDS011;33272;51.922;7.730;2024-01-07T04:19:33;13.33;;;11.27;;
47529;SDS011;33272;51.922;7.730;2024-01-07T04:21:59;12.87;;;10.90;;
47529;SDS011;33272;51.922;7.730;2024-01-07T04:24:27;11.53;;;10.10;;
47529;SDS011;33272;51.922;7.730;2024-01-07T04:26:54;11.80;;;9.87;;
47529;SDS011;33272;51.922;7.730;2024-01-07T04:29:21;12.03;;;10.37;;
47529;SDS011;33272;51.922;7.730;2024-01-07T04:31:47;12.17;;;10.63;;
47529;SDS011;33272;51.922;7.730;2024-01-07T04:34:14;14.10;;;11.77;;
47529;SDS011;33272;51.922;7.730;2024-01-07T04:36:41;12.90;;;10.77;;
47529;SDS011;33272;51.922;7.730;2024-01-07T04:39:07;11.77;;;10.47;;
47529;SDS011;33272;51.922;7.730;2024-01-07T04:41:37;12.43;;;10.67;;
47529;SDS011;33272;51.922;7.730;2024-01-07T04:44:04;13.37;;;11.07;;
47529;SDS011;33272;51.922;7.730;2024-01-07T04:46:33;12.53;;;9.87;;
47529;SDS011;33272;51.922;7.730;2024-01-07T04:49:00;11.33;;;10.13;;
47529;SDS011;33272;51.922;7.730;2024-01-07T04:51:26;13.03;;;9.60;;
47529;SDS011;33272;51.922;7.730;2024-01-07T04:53:53;11.47;;;10.27;;
47529;SDS011;33272;51.922;7.730;2024-01-07T04:56:19;13.13;;;10.57;;
47529;SDS011;33272;51.922;7.730;2024-01-07T04:58:47;12.37;;;10.57;;
47529;SDS011;33272;51.922;7.730;2024-01-07T05:01:14;12.23;;;10.07;;
47529;SDS011;33272;51.922;7.730;2024-01-07T05:03:41;12.97;;;9.90;;
47529;SDS011;33272;51.922;7.730;2024-01-07T05:06:08;11.37;;;10.17;;
47529;SDS011;33272;51.922;7.730;2024-01-07T05:08:35;11.10;;;9.80;;
47529;SDS011;33272;51.922;7.730;2024-01-07T05:11:02;12.37;;;10.43;;
47529;SDS011;33272;51.922;7.730;2024-01-07T05:13:29;11.93;;;8.97;;
47529;SDS011;33272;51.922;7.730;2024-01-07T05:15:57;10.23;;;9.13;;
47529;SDS011;33272;51.922;7.730;2024-01-07T05:18:24;10.43;;;9.13;;
47529;SDS011;33272;51.922;7.730;2024-01-07T05:20:51;10.90;;;9.47;;
47529;SDS011;33272;51.922;7.730;2024-01-07T05:23:18;9.73;;;8.63;;
47529;SDS011;33272;51.922;7.730;2024-01-07T05:25:45;10.13;;;8.20;;
47529;SDS011;33272;51.922;7.730;2024-01-07T05:28:12;12.93;;;9.60;;
47529;SDS011;33272;51.922;7.730;2024-01-07T05:30:39;10.60;;;7.93;;
47529;SDS011;33272;51.922;7.730;2024-01-07T05:33:07;10.23;;;8.40;;
47529;SDS011;33272;51.922;7.730;2024-01-07T05:35:34;9.77;;;8.20;;
47529;SDS011;33272;51.922;7.730;2024-01-07T05:38:01;11.20;;;8.70;;
47529;SDS011;33272;51.922;7.730;2024-01-07T05:40:27;8.80;;;7.70;;
47529;SDS011;33272;51.922;7.730;2024-01-07T05:42:54;10.40;;;8.40;;
47529;SDS011;33272;51.922;7.730;2024-01-07T05:45:20;8.53;;;7.57;;
47529;SDS011;33272;51.922;7.730;2024-01-07T05:47:47;9.97;;;8.13;;
47529;SDS011;33272;51.922;7.730;2024-01-07T05:50:15;8.77;;;7.87;;
47529;SDS011;33272;51.922;7.730;2024-01-07T05:52:44;10.93;;;8.83;;
47529;SDS011;33272;51.922;7.730;2024-01-07T05:55:10;11.73;;;8.57;;
47529;SDS011;33272;51.922;7.730;2024-01-07T05:57:37;10.53;;;8.47;;
47529;SDS011;33272;51.922;7.730;2024-01-07T06:00:04;12.57;;;9.33;;
47529;SDS011;33272;51.922;7.730;2024-01-07T06:02:31;11.10;;;8.67;;
47529;SDS011;33272;51.922;7.730;2024-01-07T06:04:57;10.17;;;9.17;;
47529;SDS011;33272;51.922;7.730;2024-01-07T06:07:25;10.40;;;9.17;;
47529;SDS011;33272;51.922;7.730;2024-01-07T06:09:52;11.57;;;9.03;;
47529;SDS011;33272;51.922;7.730;2024-01-07T06:12:19;10.50;;;9.30;;
47529;SDS011;33272;51.922;7.730;2024-01-07T06:14:45;11.40;;;9.63;;
47529;SDS011;33272;51.922;7.730;2024-01-07T06:17:12;12.17;;;9.70;;
47529;SDS011;33272;51.922;7.730;2024-01-07T06:19:39;12.23;;;9.80;;
47529;SDS011;33272;51.922;7.730;2024-01-07T06:22:05;12.33;;;9.87;;
47529;SDS011;33272;51.922;7.730;2024-01-07T06:24:33;11.63;;;9.60;;
47529;SDS011;33272;51.922;7.730;2024-01-07T06:27:00;11.13;;;8.93;;
47529;SDS011;33272;51.922;7.730;2024-01-07T06:29:28;12.73;;;9.97;;
47529;SDS011;33272;51.922;7.730;2024-01-07T06:31:55;10.87;;;8.77;;
47529;SDS011;33272;51.922;7.730;2024-01-07T06:34:22;11.10;;;9.20;;
47529;SDS011;33272;51.922;7.730;2024-01-07T06:36:48;11.77;;;9.17;;
47529;SDS011;33272;51.922;7.730;2024-01-07T06:39:15;10.97;;;8.53;;
47529;SDS011;33272;51.922;7.730;2024-01-07T06:41:43;10.33;;;8.47;;
47529;SDS011;33272;51.922;7.730;2024-01-07T06:44:10;10.37;;;8.70;;
47529;SDS011;33272;51.922;7.730;2024-01-07T06:46:37;8.97;;;8.00;;
47529;SDS011;33272;51.922;7.730;2024-01-07T06:49:03;9.87;;;7.93;;
47529;SDS011;33272;51.922;7.730;2024-01-07T06:51:30;10.70;;;7.97;;
47529;SDS011;33272;51.922;7.730;2024-01-07T06:53:57;9.53;;;8.00;;
47529;SDS011;33272;51.922;7.730;2024-01-07T06:56:22;9.73;;;7.90;;
47529;SDS011;33272;51.922;7.730;2024-01-07T06:58:51;10.50;;;7.77;;
47529;SDS011;33272;51.922;7.730;2024-01-07T07:01:19;13.00;;;7.20;;
47529;SDS011;33272;51.922;7.730;2024-01-07T07:03:46;8.00;;;7.20;;
47529;SDS011;33272;51.922;7.730;2024-01-07T07:06:12;7.20;;;6.50;;
47529;SDS011;33272;51.922;7.730;2024-01-07T07:08:39;8.87;;;7.20;;
47529;SDS011;33272;51.922;7.730;2024-01-07T07:11:06;8.57;;;7.57;;
47529;SDS011;33272;51.922;7.730;2024-01-07T07:13:32;7.67;;;6.87;;
47529;SDS011;33272;51.922;7.730;2024-01-07T07:16:00;7.07;;;6.37;;
47529;SDS011;33272;51.922;7.730;2024-01-07T07:18:27;7.83;;;6.60;;
47529;SDS011;33272;51.922;7.730;2024-01-07T07:20:54;6.73;;;6.03;;
47529;SDS011;33272;51.922;7.730;2024-01-07T07:23:20;6.67;;;5.90;;
47529;SDS011;33272;51.922;7.730;2024-01-07T07:25:47;7.33;;;6.13;;
47529;SDS011;33272;51.922;7.730;2024-01-07T07:28:13;8.43;;;5.90;;
47529;SDS011;33272;51.922;7.730;2024-01-07T07:30:41;6.63;;;5.90;;
47529;SDS011;33272;51.922;7.730;2024-01-07T07:33:09;6.10;;;5.50;;
47529;SDS011;33272;51.922;7.730;2024-01-07T07:35:35;7.27;;;5.30;;
47529;SDS011;33272;51.922;7.730;2024-01-07T07:38:03;6.00;;;5.40;;
47529;SDS011;33272;51.922;7.730;2024-01-07T07:40:30;6.50;;;5.77;;
47529;SDS011;33272;51.922;7.730;2024-01-07T07:42:57;6.67;;;5.50;;
47529;SDS011;33272;51.922;7.730;2024-01-07T07:45:24;6.53;;;5.93;;
47529;SDS011;33272;51.922;7.730;2024-01-07T07:47:50;6.10;;;5.10;;
47529;SDS011;33272;51.922;7.730;2024-01-07T07:50:18;6.07;;;5.00;;
47529;SDS011;33272;51.922;7.730;2024-01-07T07:52:45;6.23;;;5.27;;
47529;SDS011;33272;51.922;7.730;2024-01-07T07:55:11;7.47;;;5.47;;
47529;SDS011;33272;51.922;7.730;2024-01-07T07:57:38;6.40;;;5.20;;
47529;SDS011;33272;51.922;7.730;2024-01-07T08:00:05;6.90;;;5.07;;
47529;SDS011;33272;51.922;7.730;2024-01-07T08:02:32;6.20;;;5.23;;
47529;SDS011;33272;51.922;7.730;2024-01-07T08:04:59;7.37;;;5.60;;
47529;SDS011;33272;51.922;7.730;2024-01-07T08:07:27;6.70;;;5.10;;
47529;SDS011;33272;51.922;7.730;2024-01-07T08:09:54;6.87;;;4.80;;
47529;SDS011;33272;51.922;7.730;2024-01-07T08:12:22;7.40;;;4.87;;
47529;SDS011;33272;51.922;7.730;2024-01-07T08:14:48;5.83;;;4.67;;
47529;SDS011;33272;51.922;7.730;2024-01-07T08:17:15;6.33;;;5.07;;
47529;SDS011;33272;51.922;7.730;2024-01-07T08:19:42;5.87;;;4.50;;
47529;SDS011;33272;51.922;7.730;2024-01-07T08:22:09;6.37;;;4.60;;
47529;SDS011;33272;51.922;7.730;2024-01-07T08:24:36;5.13;;;4.57;;
47529;SDS011;33272;51.922;7.730;2024-01-07T08:27:02;5.40;;;4.90;;
47529;SDS011;33272;51.922;7.730;2024-01-07T08:29:30;6.83;;;4.70;;
47529;SDS011;33272;51.922;7.730;2024-01-07T08:31:56;5.93;;;4.70;;
47529;SDS011;33272;51.922;7.730;2024-01-07T08:34:23;5.07;;;4.33;;
47529;SDS011;33272;51.922;7.730;2024-01-07T08:36:50;4.60;;;4.13;;
47529;SDS011;33272;51.922;7.730;2024-01-07T08:39:18;8.13;;;4.63;;
47529;SDS011;33272;51.922;7.730;2024-01-07T08:41:46;5.03;;;4.53;;
47529;SDS011;33272;51.922;7.730;2024-01-07T08:44:13;5.97;;;4.47;;
47529;SDS011;33272;51.922;7.730;2024-01-07T08:46:40;4.80;;;3.93;;
47529;SDS011;33272;51.922;7.730;2024-01-07T08:49:06;4.80;;;4.17;;
47529;SDS011;33272;51.922;7.730;2024-01-07T08:51:33;5.07;;;4.50;;
47529;SDS011;33272;51.922;7.730;2024-01-07T08:53:59;4.80;;;4.23;;
47529;SDS011;33272;51.922;7.730;2024-01-07T08:56:26;4.97;;;4.17;;
47529;SDS011;33272;51.922;7.730;2024-01-07T08:58:54;5.37;;;4.40;;
47529;SDS011;33272;51.922;7.730;2024-01-07T09:01:21;7.03;;;4.10;;
47529;SDS011;33272;51.922;7.730;2024-01-07T09:03:49;5.33;;;4.67;;
47529;SDS011;33272;51.922;7.730;2024-01-07T09:06:15;4.50;;;4.10;;
47529;SDS011;33272;51.922;7.730;2024-01-07T09:08:42;9.07;;;7.17;;
47529;SDS011;33272;51.922;7.730;2024-01-07T09:11:09;12.87;;;8.50;;
47529;SDS011;33272;51.922;7.730;2024-01-07T09:13:37;8.40;;;6.90;;
47529;SDS011;33272;51.922;7.730;2024-01-07T09:16:06;5.60;;;4.30;;
47529;SDS011;33272;51.922;7.730;2024-01-07T09:18:34;10.70;;;8.23;;
47529;SDS011;33272;51.922;7.730;2024-01-07T09:21:01;11.57;;;8.77;;
47529;SDS011;33272;51.922;7.730;2024-01-07T09:23:28;9.87;;;7.10;;
47529;SDS011;33272;51.922;7.730;2024-01-07T09:25:54;4.97;;;4.47;;
47529;SDS011;33272;51.922;7.730;2024-01-07T09:28:21;7.23;;;5.90;;
47529;SDS011;33272;51.922;7.730;2024-01-07T09:30:47;6.13;;;4.13;;
47529;SDS011;33272;51.922;7.730;2024-01-07T09:33:15;4.90;;;4.40;;
47529;SDS011;33272;51.922;7.730;2024-01-07T09:35:42;6.47;;;4.23;;
47529;SDS011;33272;51.922;7.730;2024-01-07T09:38:09;5.17;;;4.50;;
47529;SDS011;33272;51.922;7.730;2024-01-07T09:40:36;6.37;;;4.03;;
47529;SDS011;33272;51.922;7.730;2024-01-07T09:43:04;4.03;;;3.63;;
47529;SDS011;33272;51.922;7.730;2024-01-07T09:45:31;4.57;;;3.73;;
47529;SDS011;33272;51.922;7.730;2024-01-07T09:47:57;4.93;;;3.90;;
47529;SDS011;33272;51.922;7.730;2024-01-07T09:50:25;4.60;;;3.93;;
47529;SDS011;33272;51.922;7.730;2024-01-07T09:52:52;5.43;;;4.57;;
47529;SDS011;33272;51.922;7.730;2024-01-07T09:55:26;5.37;;;3.73;;
47529;SDS011;33272;51.922;7.730;2024-01-07T09:57:54;5.13;;;4.10;;
47529;SDS011;33272;51.922;7.730;2024-01-07T10:00:20;4.43;;;3.67;;
47529;SDS011;33272;51.922;7.730;2024-01-07T10:02:47;4.43;;;4.03;;
47529;SDS011;33272;51.922;7.730;2024-01-07T10:05:14;4.20;;;3.80;;
47529;SDS011;33272;51.922;7.730;2024-01-07T10:07:42;5.23;;;4.73;;
47529;SDS011;33272;51.922;7.730;2024-01-07T10:10:13;4.70;;;3.87;;
47529;SDS011;33272;51.922;7.730;2024-01-07T10:12:40;3.80;;;3.37;;
47529;SDS011;33272;51.922;7.730;2024-01-07T10:15:08;3.80;;;3.50;;
47529;SDS011;33272;51.922;7.730;2024-01-07T10:17:34;4.80;;;3.67;;
47529;SDS011;33272;51.922;7.730;2024-01-07T10:20:01;4.13;;;3.13;;
47529;SDS011;33272;51.922;7.730;2024-01-07T10:22:30;5.83;;;3.67;;
47529;SDS011;33272;51.922;7.730;2024-01-07T10:24:59;5.97;;;5.27;;
47529;SDS011;33272;51.922;7.730;2024-01-07T10:27:26;6.67;;;5.17;;
47529;SDS011;33272;51.922;7.730;2024-01-07T10:29:52;8.13;;;6.10;;
47529;SDS011;33272;51.922;7.730;2024-01-07T10:32:20;3.73;;;3.23;;
47529;SDS011;33272;51.922;7.730;2024-01-07T10:34:46;4.47;;;3.93;;
47529;SDS011;33272;51.922;7.730;2024-01-07T10:37:14;2.77;;;2.30;;
47529;SDS011;33272;51.922;7.730;2024-01-07T10:39:41;4.13;;;3.70;;
47529;SDS011;33272;51.922;7.730;2024-01-07T10:42:09;2.77;;;2.23;;
47529;SDS011;33272;51.922;7.730;2024-01-07T10:44:38;3.70;;;2.80;;
47529;SDS011;33272;51.922;7.730;2024-01-07T10:47:06;3.10;;;2.80;;
47529;SDS011;33272;51.922;7.730;2024-01-07T10:49:33;3.40;;;2.67;;
47529;SDS011;33272;51.922;7.730;2024-01-07T10:52:03;3.53;;;2.70;;
47529;SDS011;33272;51.922;7.730;2024-01-07T10:54:31;2.57;;;2.33;;
47529;SDS011;33272;51.922;7.730;2024-01-07T10:56:59;4.10;;;2.37;;
47529;SDS011;33272;51.922;7.730;2024-01-07T10:59:34;3.37;;;2.27;;
47529;SDS011;33272;51.922;7.730;2024-01-07T11:02:02;2.63;;;2.40;;
47529;SDS011;33272;51.922;7.730;2024-01-07T11:04:31;2.63;;;2.20;;
47529;SDS011;33272;51.922;7.730;2024-01-07T11:07:05;3.57;;;2.33;;
47529;SDS011;33272;51.922;7.730;2024-01-07T11:09:44;2.97;;;2.27;;
47529;SDS011;33272;51.922;7.730;2024-01-07T11:12:20;4.87;;;2.40;;
47529;SDS011;33272;51.922;7.730;2024-01-07T11:14:48;4.00;;;2.83;;
47529;SDS011;33272;51.922;7.730;2024-01-07T11:17:39;4.40;;;2.53;;
47529;SDS011;33272;51.922;7.730;2024-01-07T11:20:10;3.63;;;2.70;;
47529;SDS011;33272;51.922;7.730;2024-01-07T11:22:45;3.17;;;2.87;;
47529;SDS011;33272;51.922;7.730;2024-01-07T11:25:27;3.53;;;2.90;;
47529;SDS011;33272;51.922;7.730;2024-01-07T11:27:55;3.80;;;2.30;;
47529;SDS011;33272;51.922;7.730;2024-01-07T11:30:24;3.67;;;2.83;;
47529;SDS011;33272;51.922;7.730;2024-01-07T11:32:55;2.37;;;2.17;;
47529;SDS011;33272;51.922;7.730;2024-01-07T11:35:38;2.97;;;2.67;;
47529;SDS011;33272;51.922;7.730;2024-01-07T11:38:20;3.70;;;2.97;;
47529;SDS011;33272;51.922;7.730;2024-01-07T11:40:46;6.40;;;4.80;;
47529;SDS011;33272;51.922;7.730;2024-01-07T11:43:15;30.00;;;19.83;;
47529;SDS011;33272;51.922;7.730;2024-01-07T11:45:43;31.97;;;24.43;;
47529;SDS011;33272;51.922;7.730;2024-01-07T11:48:10;39.60;;;28.47;;
47529;SDS011;33272;51.922;7.730;2024-01-07T11:50:36;36.07;;;26.10;;
47529;SDS011;33272;51.922;7.730;2024-01-07T11:53:03;40.97;;;28.37;;
47529;SDS011;33272;51.922;7.730;2024-01-07T11:55:30;32.67;;;26.13;;
47529;SDS011;33272;51.922;7.730;2024-01-07T11:58:00;31.57;;;23.53;;
47529;SDS011;33272;51.922;7.730;2024-01-07T12:00:27;23.50;;;19.97;;
47529;SDS011;33272;51.922;7.730;2024-01-07T12:02:55;20.93;;;16.90;;
47529;SDS011;33272;51.922;7.730;2024-01-07T12:05:21;18.13;;;14.00;;
47529;SDS011;33272;51.922;7.730;2024-01-07T12:07:48;11.93;;;8.60;;
47529;SDS011;33272;51.922;7.730;2024-01-07T12:10:14;8.97;;;6.70;;
47529;SDS011;33272;51.922;7.730;2024-01-07T12:12:42;5.60;;;4.33;;
47529;SDS011;33272;51.922;7.730;2024-01-07T12:15:10;5.97;;;4.13;;
47529;SDS011;33272;51.922;7.730;2024-01-07T12:17:37;6.23;;;3.83;;
47529;SDS011;33272;51.922;7.730;2024-01-07T12:20:06;6.97;;;3.43;;
47529;SDS011;33272;51.922;7.730;2024-01-07T12:22:33;7.97;;;3.33;;
47529;SDS011;33272;51.922;7.730;2024-01-07T12:25:04;6.70;;;3.30;;
47529;SDS011;33272;51.922;7.730;2024-01-07T12:27:32;6.80;;;2.90;;
47529;SDS011;33272;51.922;7.730;2024-01-07T12:30:00;6.27;;;3.73;;
47529;SDS011;33272;51.922;7.730;2024-01-07T12:32:27;5.20;;;2.80;;
47529;SDS011;33272;51.922;7.730;2024-01-07T12:34:56;5.10;;;3.00;;
47529;SDS011;33272;51.922;7.730;2024-01-07T12:37:25;7.63;;;3.27;;
47529;SDS011;33272;51.922;7.730;2024-01-07T12:39:52;5.97;;;3.37;;
47529;SDS011;33272;51.922;7.730;2024-01-07T12:42:19;3.93;;;3.37;;
47529;SDS011;33272;51.922;7.730;2024-01-07T12:44:47;5.67;;;3.70;;
47529;SDS011;33272;51.922;7.730;2024-01-07T12:47:13;7.17;;;3.17;;
47529;SDS011;33272;51.922;7.730;2024-01-07T12:49:40;6.53;;;2.73;;
47529;SDS011;33272;51.922;7.730;2024-01-07T12:52:07;4.13;;;2.33;;
47529;SDS011;33272;51.922;7.730;2024-01-07T12:54:35;3.93;;;2.93;;
47529;SDS011;33272;51.922;7.730;2024-01-07T12:57:02;7.10;;;2.83;;
47529;SDS011;33272;51.922;7.730;2024-01-07T12:59:28;3.93;;;3.07;;
47529;SDS011;33272;51.922;7.730;2024-01-07T13:01:55;4.67;;;2.73;;
47529;SDS011;33272;51.922;7.730;2024-01-07T13:04:22;5.07;;;2.80;;
47529;SDS011;33272;51.922;7.730;2024-01-07T13:06:48;4.43;;;3.00;;
47529;SDS011;33272;51.922;7.730;2024-01-07T13:09:15;4.43;;;2.60;;
47529;SDS011;33272;51.922;7.730;2024-01-07T13:11:43;2.93;;;2.40;;
47529;SDS011;33272;51.922;7.730;2024-01-07T13:14:09;5.40;;;2.83;;
47529;SDS011;33272;51.922;7.730;2024-01-07T13:16:36;3.83;;;2.40;;
47529;SDS011;33272;51.922;7.730;2024-01-07T13:19:02;3.90;;;2.60;;
47529;SDS011;33272;51.922;7.730;2024-01-07T13:21:29;3.80;;;2.60;;
47529;SDS011;33272;51.922;7.730;2024-01-07T13:23:56;3.83;;;2.63;;
47529;SDS011;33272;51.922;7.730;2024-01-07T13:26:25;6.77;;;3.00;;
47529;SDS011;33272;51.922;7.730;2024-01-07T13:28:52;4.53;;;2.43;;
47529;SDS011;33272;51.922;7.730;2024-01-07T13:31:19;4.07;;;2.60;;
47529;SDS011;33272;51.922;7.730;2024-01-07T13:33:45;6.47;;;2.90;;
47529;SDS011;33272;51.922;7.730;2024-01-07T13:36:12;3.00;;;2.40;;
47529;SDS011;33272;51.922;7.730;2024-01-07T13:38:39;4.13;;;2.40;;
47529;SDS011;33272;51.922;7.730;2024-01-07T13:41:06;4.67;;;2.63;;
47529;SDS011;33272;51.922;7.730;2024-01-07T13:43:33;3.77;;;2.70;;
47529;SDS011;33272;51.922;7.730;2024-01-07T13:46:01;3.60;;;2.20;;
47529;SDS011;33272;51.922;7.730;2024-01-07T13:48:28;4.30;;;2.30;;
47529;SDS011;33272;51.922;7.730;2024-01-07T13:50:55;3.93;;;2.30;;
47529;SDS011;33272;51.922;7.730;2024-01-07T13:53:23;4.97;;;2.77;;
47529;SDS011;33272;51.922;7.730;2024-01-07T13:55:49;3.83;;;2.40;;
47529;SDS011;33272;51.922;7.730;2024-01-07T13:58:16;4.23;;;2.50;;
47529;SDS011;33272;51.922;7.730;2024-01-07T14:00:45;3.47;;;2.80;;
47529;SDS011;33272;51.922;7.730;2024-01-07T14:03:12;3.67;;;2.40;;
47529;SDS011;33272;51.922;7.730;2024-01-07T14:05:39;3.30;;;2.03;;
47529;SDS011;33272;51.922;7.730;2024-01-07T14:08:05;4.73;;;2.50;;
47529;SDS011;33272;51.922;7.730;2024-01-07T14:10:32;4.47;;;2.23;;
47529;SDS011;33272;51.922;7.730;2024-01-07T14:12:58;3.47;;;2.23;;
47529;SDS011;33272;51.922;7.730;2024-01-07T14:15:25;3.97;;;2.23;;
47529;SDS011;33272;51.922;7.730;2024-01-07T14:17:51;2.60;;;2.03;;
47529;SDS011;33272;51.922;7.730;2024-01-07T14:20:19;3.03;;;2.10;;
47529;SDS011;33272;51.922;7.730;2024-01-07T14:22:47;3.93;;;2.33;;
47529;SDS011;33272;51.922;7.730;2024-01-07T14:25:13;5.70;;;2.70;;
47529;SDS011;33272;51.922;7.730;2024-01-07T14:27:40;3.63;;;1.97;;
47529;SDS011;33272;51.922;7.730;2024-01-07T14:30:07;3.43;;;2.20;;
47529;SDS011;33272;51.922;7.730;2024-01-07T14:32:33;2.80;;;2.00;;
47529;SDS011;33272;51.922;7.730;2024-01-07T14:35:01;3.37;;;2.10;;
47529;SDS011;33272;51.922;7.730;2024-01-07T14:37:30;3.33;;;2.30;;
47529;SDS011;33272;51.922;7.730;2024-01-07T14:39:56;3.63;;;2.53;;
47529;SDS011;33272;51.922;7.730;2024-01-07T14:42:23;2.83;;;1.83;;